createdAt,value
2018-03-28T03:30:36.300Z,25.73
2018-03-28T03:33:04.039Z,29.20
2018-03-28T03:35:31.804Z,28.87
2018-03-28T03:37:59.667Z,25.00
2018-03-28T03:40:27.430Z,26.58
2018-03-28T03:42:55.192Z,28.60
2018-03-28T03:45:22.955Z,26.73
2018-03-28T03:47:50.719Z,28.35
2018-03-28T03:50:18.379Z,28.40
2018-03-28T03:52:46.244Z,27.02
2018-03-28T03:55:13.871Z,28.02
2018-03-28T03:57:41.667Z,26.48
2018-03-28T04:00:09.348Z,26.67
2018-03-28T04:02:37.108Z,28.42
2018-03-28T04:05:04.872Z,29.77
2018-03-28T04:07:32.718Z,32.90
2018-03-28T04:10:00.482Z,31.23
2018-03-28T04:12:28.245Z,30.50
2018-03-28T04:14:56.007Z,28.98
2018-03-28T04:17:23.677Z,29.40
2018-03-28T04:19:51.304Z,28.67
2018-03-28T04:22:19.092Z,28.80
2018-03-28T04:24:46.725Z,29.30
2018-03-28T04:27:14.412Z,29.37
2018-03-28T04:29:42.057Z,27.33
2018-03-28T04:32:09.753Z,27.45
2018-03-28T04:34:37.512Z,29.00
2018-03-28T04:37:05.176Z,29.20
2018-03-28T04:39:32.922Z,28.20
2018-03-28T04:42:00.684Z,27.27
2018-03-28T04:44:28.447Z,27.92
2018-03-28T04:46:56.128Z,29.70
2018-03-28T04:49:23.868Z,29.15
2018-03-28T04:51:51.548Z,27.60
2018-03-28T04:54:20.386Z,28.35
2018-03-28T04:56:48.096Z,26.95
2018-03-28T04:59:15.719Z,28.40
2018-03-28T05:01:43.476Z,28.08
2018-03-28T05:04:11.332Z,29.40
2018-03-28T05:06:39.745Z,28.27
2018-03-28T05:09:07.740Z,29.27
2018-03-28T05:11:35.372Z,29.85
2018-03-28T05:14:03.875Z,27.25
2018-03-28T05:16:31.718Z,28.77
2018-03-28T05:18:59.396Z,28.33
2018-03-28T05:21:27.244Z,30.17
2018-03-28T05:23:55.007Z,29.67
2018-03-28T05:26:22.769Z,28.40
2018-03-28T05:28:50.552Z,29.63
2018-03-28T05:31:18.216Z,29.48
2018-03-28T05:33:45.956Z,29.73
2018-03-28T05:36:13.719Z,29.92
2018-03-28T05:38:41.379Z,26.42
2018-03-28T05:41:09.040Z,28.60
2018-03-28T05:43:36.820Z,25.85
2018-03-28T05:46:04.566Z,28.83
2018-03-28T05:48:32.244Z,28.20
2018-03-28T05:51:00.213Z,26.95
2018-03-28T05:53:27.957Z,25.02
2018-03-28T05:55:55.660Z,27.98
2018-03-28T05:58:24.200Z,25.58
2018-03-28T06:00:51.963Z,24.95
2018-03-28T06:03:19.712Z,25.30
2018-03-28T06:05:47.364Z,26.75
2018-03-28T06:08:14.999Z,26.60
2018-03-28T06:10:43.436Z,24.12
2018-03-28T06:13:11.060Z,23.00
2018-03-28T06:15:38.693Z,23.48
2018-03-28T06:18:07.112Z,23.52
2018-03-28T06:20:34.750Z,20.92
2018-03-28T06:23:02.427Z,22.27
2018-03-28T06:25:30.061Z,20.83
2018-03-28T06:27:57.692Z,21.37
2018-03-28T06:30:25.407Z,22.40
2018-03-28T06:32:53.062Z,23.00
2018-03-28T06:35:20.688Z,22.77
2018-03-28T06:37:49.110Z,24.25
2018-03-28T06:40:16.741Z,25.67
2018-03-28T06:42:44.408Z,22.62
2018-03-28T06:45:12.037Z,23.90
2018-03-28T06:47:39.671Z,22.27
2018-03-28T06:50:07.361Z,23.65
2018-03-28T06:52:35.760Z,21.50
2018-03-28T06:55:03.388Z,22.10
2018-03-28T06:57:31.040Z,19.98
2018-03-28T06:59:59.560Z,19.98
2018-03-28T07:02:27.196Z,18.23
2018-03-28T07:04:54.885Z,17.85
2018-03-28T07:07:22.528Z,20.25
2018-03-28T07:09:50.920Z,19.33
2018-03-28T07:12:18.604Z,17.90
2018-03-28T07:14:46.235Z,16.42
2018-03-28T07:17:14.631Z,16.35
2018-03-28T07:19:42.296Z,16.98
2018-03-28T07:22:09.916Z,16.48
2018-03-28T07:24:37.544Z,19.30
2018-03-28T07:27:05.216Z,16.50
2018-03-28T07:29:32.857Z,14.87
2018-03-28T07:32:00.503Z,15.70
2018-03-28T07:34:28.180Z,14.20
2018-03-28T07:36:55.811Z,15.48
2018-03-28T07:39:23.444Z,14.80
2018-03-28T07:41:51.863Z,14.82
2018-03-28T07:44:19.492Z,14.43
2018-03-28T07:46:47.888Z,14.65
2018-03-28T07:49:15.540Z,13.52
2018-03-28T07:51:43.176Z,15.77
2018-03-28T07:54:11.614Z,16.25
2018-03-28T07:56:40.050Z,14.02
2018-03-28T07:59:08.444Z,13.62
2018-03-28T08:01:36.117Z,13.90
2018-03-28T08:04:03.748Z,14.25
2018-03-28T08:06:32.325Z,13.50
2018-03-28T08:09:03.334Z,14.68
2018-03-28T08:11:31.181Z,14.00
2018-03-28T08:13:58.893Z,14.00
2018-03-28T08:16:27.347Z,14.50
2018-03-28T08:18:54.988Z,12.32
2018-03-28T08:21:22.663Z,12.80
2018-03-28T08:23:50.340Z,12.57
2018-03-28T08:26:19.385Z,11.98
2018-03-28T08:28:47.036Z,11.80
2018-03-28T08:31:15.023Z,12.50
2018-03-28T08:33:42.791Z,11.55
2018-03-28T08:36:10.469Z,10.43
2018-03-28T08:38:38.228Z,10.07
2018-03-28T08:41:06.301Z,10.52
2018-03-28T08:43:35.583Z,11.32
2018-03-28T08:46:03.341Z,11.05
2018-03-28T08:48:31.104Z,9.30
2018-03-28T08:50:58.867Z,9.70
2018-03-28T08:53:26.544Z,9.50
2018-03-28T08:55:54.200Z,9.18
2018-03-28T08:58:21.869Z,9.20
2018-03-28T09:00:49.510Z,9.57
2018-03-28T09:03:17.374Z,9.32
2018-03-28T09:05:45.053Z,9.60
2018-03-28T09:08:12.800Z,8.25
2018-03-28T09:10:40.581Z,8.20
2018-03-28T09:13:08.208Z,8.18
2018-03-28T09:15:36.089Z,8.05
2018-03-28T09:18:03.952Z,7.50
2018-03-28T09:20:31.715Z,8.13
2018-03-28T09:22:59.337Z,7.50
2018-03-28T09:25:27.037Z,7.55
2018-03-28T09:27:54.717Z,7.62
2018-03-28T09:30:22.476Z,7.10
2018-03-28T09:32:50.136Z,7.10
2018-03-28T09:35:17.883Z,7.75
2018-03-28T09:37:45.748Z,5.80
2018-03-28T09:40:13.510Z,6.40
2018-03-28T09:42:41.274Z,6.35
2018-03-28T09:45:08.954Z,6.12
2018-03-28T09:47:36.739Z,5.97
2018-03-28T09:50:04.353Z,5.37
2018-03-28T09:52:32.171Z,5.25
2018-03-28T09:55:00.703Z,6.15
2018-03-28T09:57:28.369Z,5.22
2018-03-28T09:59:56.146Z,5.22
2018-03-28T10:02:29.624Z,5.80
2018-03-28T10:05:00.069Z,5.68
2018-03-28T10:07:27.847Z,6.10
2018-03-28T10:09:55.577Z,5.45
2018-03-28T10:12:23.441Z,5.62
2018-03-28T10:14:51.069Z,6.30
2018-03-28T10:17:18.864Z,6.55
2018-03-28T10:19:46.534Z,7.03
2018-03-28T10:22:14.287Z,6.30
2018-03-28T10:24:41.969Z,5.90
2018-03-28T10:27:09.813Z,6.50
2018-03-28T10:29:37.577Z,6.82
2018-03-28T10:32:05.339Z,7.18
2018-03-28T10:34:33.104Z,6.25
2018-03-28T10:37:00.865Z,6.57
2018-03-28T10:39:28.487Z,6.93
2018-03-28T10:41:56.185Z,6.50
2018-03-28T10:44:23.868Z,5.93
2018-03-28T10:46:52.339Z,5.45
2018-03-28T10:49:20.092Z,6.55
2018-03-28T10:51:47.851Z,5.35
2018-03-28T10:54:15.472Z,4.93
2018-03-28T10:56:43.187Z,5.80
2018-03-28T10:59:10.936Z,5.28
2018-03-28T11:01:38.612Z,5.12
2018-03-28T11:04:06.462Z,4.97
2018-03-28T11:06:34.225Z,5.25
2018-03-28T11:09:02.004Z,5.53
2018-03-28T11:11:29.660Z,5.10
2018-03-28T11:13:57.427Z,5.25
2018-03-28T11:16:25.090Z,5.50
2018-03-28T11:18:52.937Z,5.00
2018-03-28T11:21:20.612Z,5.10
2018-03-28T11:23:48.360Z,4.22
2018-03-28T11:26:16.126Z,4.65
2018-03-28T11:28:43.895Z,4.78
2018-03-28T11:33:43.523Z,4.97
2018-03-28T11:36:11.271Z,4.35
2018-03-28T11:38:39.041Z,3.83
2018-03-28T11:41:06.797Z,3.90
2018-03-28T11:43:34.560Z,4.05
2018-03-28T11:46:02.323Z,4.35
2018-03-28T11:48:30.189Z,4.12
2018-03-28T11:50:57.812Z,3.65
2018-03-28T11:53:25.611Z,3.50
2018-03-28T11:55:53.373Z,3.65
2018-03-28T11:58:21.064Z,4.10
2018-03-28T12:00:48.800Z,3.95
2018-03-28T12:03:16.560Z,3.85
2018-03-28T12:05:44.240Z,3.20
2018-03-28T12:08:12.000Z,3.67
2018-03-28T12:10:39.621Z,3.42
2018-03-28T12:13:07.408Z,3.80
2018-03-28T12:15:35.170Z,4.62
2018-03-28T12:18:02.933Z,3.92
2018-03-28T12:20:30.616Z,3.58
2018-03-28T12:22:58.460Z,4.37
2018-03-28T12:25:26.223Z,3.22
2018-03-28T12:27:53.986Z,3.72
2018-03-28T12:30:21.676Z,3.30
2018-03-28T12:32:49.410Z,3.95
2018-03-28T12:35:17.173Z,3.70
2018-03-28T12:37:44.952Z,3.05
2018-03-28T12:40:12.617Z,3.35
2018-03-28T12:42:40.359Z,3.30
2018-03-28T12:45:08.044Z,4.05
2018-03-28T12:47:35.802Z,4.40
2018-03-28T12:50:03.559Z,4.22
2018-03-28T12:52:31.940Z,3.58
2018-03-28T12:54:59.602Z,3.15
2018-03-28T12:57:27.364Z,3.00
2018-03-28T12:59:55.036Z,3.42
2018-03-28T13:02:23.503Z,3.00
2018-03-28T13:04:51.250Z,2.78
2018-03-28T13:07:18.912Z,3.05
2018-03-28T13:09:46.544Z,2.90
2018-03-28T13:12:14.241Z,2.87
2018-03-28T13:14:41.872Z,3.10
2018-03-28T13:17:09.499Z,3.47
2018-03-28T13:19:37.954Z,3.17
2018-03-28T13:22:05.587Z,2.65
2018-03-28T13:24:33.214Z,3.20
2018-03-28T13:27:00.885Z,3.12
2018-03-28T13:29:28.509Z,3.60
2018-03-28T13:31:56.909Z,3.00
2018-03-28T13:34:24.556Z,4.00
2018-03-28T13:36:53.000Z,3.70
2018-03-28T13:39:20.632Z,3.12
2018-03-28T13:41:48.261Z,3.50
2018-03-28T13:44:16.703Z,6.35
2018-03-28T13:46:44.333Z,5.25
2018-03-28T13:49:11.961Z,6.45
2018-03-28T13:51:39.635Z,7.47
2018-03-28T13:54:09.715Z,5.72
2018-03-28T13:56:37.480Z,6.15
2018-03-28T13:59:05.916Z,6.28
2018-03-28T14:01:33.548Z,6.70
2018-03-28T14:04:01.177Z,7.20
2018-03-28T14:06:28.945Z,6.75
2018-03-28T14:08:57.339Z,5.50
2018-03-28T14:11:24.981Z,5.25
2018-03-28T14:13:53.421Z,5.55
2018-03-28T14:16:21.040Z,3.85
2018-03-28T14:18:48.667Z,3.83
2018-03-28T14:21:16.348Z,4.43
2018-03-28T14:23:44.826Z,4.15
2018-03-28T14:26:13.245Z,3.85
2018-03-28T14:28:40.915Z,3.97
2018-03-28T14:31:08.546Z,4.30
2018-03-28T14:33:36.182Z,4.45
2018-03-28T14:36:04.622Z,5.10
2018-03-28T14:38:34.876Z,5.68
2018-03-28T14:41:02.547Z,5.57
2018-03-28T14:43:31.023Z,6.80
2018-03-28T14:45:59.476Z,7.05
2018-03-28T14:48:27.105Z,6.55
2018-03-28T14:50:54.833Z,7.93
2018-03-28T14:53:23.228Z,6.32
2018-03-28T14:55:51.077Z,7.47
2018-03-28T14:58:18.764Z,10.88
2018-03-28T15:00:46.395Z,9.50
2018-03-28T15:03:14.789Z,9.60
2018-03-28T15:05:42.448Z,10.10
2018-03-28T15:08:10.076Z,10.52
2018-03-28T15:10:37.704Z,9.13
2018-03-28T15:13:05.390Z,10.05
2018-03-28T15:15:33.024Z,10.02
2018-03-28T15:18:00.700Z,11.90
2018-03-28T15:20:28.341Z,9.23
2018-03-28T15:22:55.968Z,9.80
2018-03-28T15:25:23.638Z,12.30
2018-03-28T15:27:51.268Z,8.88
2018-03-28T15:30:19.668Z,11.80
2018-03-28T15:32:47.361Z,9.40
2018-03-28T15:35:14.988Z,10.00
2018-03-28T15:37:42.616Z,11.18
2018-03-28T15:40:10.309Z,10.65
2018-03-28T15:42:37.940Z,11.00
2018-03-28T15:45:05.613Z,10.38
2018-03-28T15:47:34.037Z,12.98
2018-03-28T15:50:01.671Z,12.30
2018-03-28T15:52:29.366Z,11.27
2018-03-28T15:54:56.995Z,11.80
2018-03-28T15:57:24.627Z,11.23
2018-03-28T15:59:53.098Z,13.45
2018-03-28T16:02:20.708Z,14.73
2018-03-28T16:04:48.344Z,12.35
2018-03-28T16:07:16.018Z,13.15
2018-03-28T16:09:43.652Z,13.02
2018-03-28T16:12:12.065Z,11.65
2018-03-28T16:14:39.772Z,12.63
2018-03-28T16:17:09.452Z,12.18
2018-03-28T16:19:37.092Z,11.43
2018-03-28T16:22:04.773Z,11.65
2018-03-28T16:24:32.410Z,12.68
2018-03-28T16:27:00.067Z,14.98
2018-03-28T16:29:27.701Z,11.95
2018-03-28T16:31:56.095Z,9.95
2018-03-28T16:34:23.753Z,9.40
2018-03-28T16:36:51.393Z,8.77
2018-03-28T16:39:19.811Z,10.43
2018-03-28T16:41:47.480Z,11.27
2018-03-28T16:44:15.130Z,12.43
2018-03-28T16:46:42.775Z,7.82
2018-03-28T16:49:10.440Z,10.82
2018-03-28T16:51:38.069Z,12.98
2018-03-28T16:54:05.725Z,10.93
2018-03-28T16:56:33.360Z,11.57
2018-03-28T16:59:01.021Z,12.82
2018-03-28T17:01:28.655Z,12.52
2018-03-28T17:03:56.436Z,12.50
2018-03-28T17:06:24.199Z,13.43
2018-03-28T17:08:51.917Z,13.40
2018-03-28T17:11:20.366Z,13.23
2018-03-28T17:13:48.102Z,13.05
2018-03-28T17:16:15.784Z,13.57
2018-03-28T17:18:43.545Z,14.25
2018-03-28T17:21:11.293Z,13.00
2018-03-28T17:23:38.972Z,15.73
2018-03-28T17:26:06.817Z,15.25
2018-03-28T17:28:34.576Z,12.82
2018-03-28T17:31:02.345Z,14.23
2018-03-28T17:33:30.205Z,15.35
2018-03-28T17:35:57.968Z,15.40
2018-03-28T17:38:25.605Z,14.85
2018-03-28T17:40:53.316Z,14.52
2018-03-28T17:43:21.716Z,14.98
2018-03-28T17:45:50.248Z,15.30
2018-03-28T17:48:17.917Z,15.77
2018-03-28T17:50:45.673Z,16.27
2018-03-28T17:53:13.540Z,16.30
2018-03-28T17:55:41.215Z,16.17
2018-03-28T17:58:08.981Z,14.40
2018-03-28T18:00:36.827Z,17.35
2018-03-28T18:03:05.616Z,18.92
2018-03-28T18:05:33.249Z,18.75
2018-03-28T18:08:00.934Z,14.40
2018-03-28T18:10:28.616Z,14.77
2018-03-28T18:12:56.361Z,15.25
2018-03-28T18:15:24.125Z,14.75
2018-03-28T18:17:52.837Z,11.75
2018-03-28T18:20:22.721Z,15.20
2018-03-28T18:22:53.085Z,17.90
2018-03-28T18:25:23.591Z,18.73
2018-03-28T18:27:51.437Z,16.20
2018-03-28T18:30:19.200Z,14.95
2018-03-28T18:32:47.066Z,13.35
2018-03-28T18:35:14.877Z,15.43
2018-03-28T18:37:43.325Z,15.23
2018-03-28T18:40:11.116Z,15.48
2018-03-28T18:42:38.934Z,15.55
2018-03-28T18:45:06.573Z,15.20
2018-03-28T18:47:34.410Z,14.55
2018-03-28T18:50:02.940Z,15.85
2018-03-28T18:52:30.702Z,15.32
2018-03-28T18:54:58.567Z,15.00
2018-03-28T18:57:26.256Z,15.82
2018-03-28T18:59:53.991Z,14.82
2018-03-28T19:02:21.676Z,15.90
2018-03-28T19:04:49.415Z,17.62
2018-03-28T19:07:17.044Z,13.88
2018-03-28T19:09:44.838Z,16.30
2018-03-28T19:12:12.604Z,12.73
2018-03-28T19:14:40.368Z,12.40
2018-03-28T19:17:08.231Z,12.75
2018-03-28T19:19:36.594Z,10.13
2018-03-28T19:22:04.472Z,9.77
2018-03-28T19:24:32.240Z,11.90
2018-03-28T19:26:59.897Z,11.27
2018-03-28T19:29:27.662Z,11.73
2018-03-28T19:31:55.423Z,11.88
2018-03-28T19:34:23.082Z,10.82
2018-03-28T19:36:50.947Z,10.27
2018-03-28T19:39:18.624Z,9.32
2018-03-28T19:41:46.370Z,10.63
2018-03-28T19:44:14.238Z,9.60
2018-03-28T19:46:42.120Z,12.37
2018-03-28T19:49:09.781Z,12.80
2018-03-28T19:51:37.638Z,12.90
2018-03-28T19:54:05.304Z,9.85
2018-03-28T19:56:33.069Z,7.62
2018-03-28T19:59:00.844Z,11.60
2018-03-28T20:01:28.576Z,10.88
2018-03-28T20:03:56.442Z,14.30
2018-03-28T20:06:24.361Z,13.60
2018-03-28T20:08:52.171Z,10.77
2018-03-28T20:11:19.941Z,13.32
2018-03-28T20:13:47.626Z,12.65
2018-03-28T20:16:16.097Z,10.75
2018-03-28T20:18:44.658Z,14.02
2018-03-28T20:21:12.545Z,13.73
2018-03-28T20:23:40.194Z,15.23
2018-03-28T20:26:07.948Z,14.50
2018-03-28T20:28:35.810Z,15.27
2018-03-28T20:31:03.676Z,15.40
2018-03-28T20:33:31.439Z,15.88
2018-03-28T20:35:59.305Z,15.55
2018-03-28T20:38:26.985Z,15.90
2018-03-28T20:40:54.730Z,18.62
2018-03-28T20:43:22.596Z,17.23
2018-03-28T20:45:50.462Z,17.75
2018-03-28T20:48:18.225Z,18.37
2018-03-28T20:50:46.087Z,18.75
2018-03-28T20:53:13.771Z,18.37
2018-03-28T20:55:41.510Z,19.10
2018-03-28T20:58:09.273Z,19.40
2018-03-28T21:00:37.037Z,20.27
2018-03-28T21:03:04.698Z,20.12
2018-03-28T21:05:32.459Z,20.27
2018-03-28T21:08:00.145Z,20.95
2018-03-28T21:10:27.844Z,22.55
2018-03-28T21:12:55.492Z,23.58
2018-03-28T21:15:24.023Z,22.50
2018-03-28T21:17:51.807Z,21.25
2018-03-28T21:20:19.574Z,22.60
2018-03-28T21:22:47.296Z,23.30
2018-03-28T21:25:15.818Z,22.73
2018-03-28T21:27:43.554Z,22.37
2018-03-28T21:30:11.233Z,22.30
2018-03-28T21:32:39.080Z,21.05
2018-03-28T21:35:06.846Z,21.48
2018-03-28T21:37:34.606Z,21.73
2018-03-28T21:40:02.382Z,22.50
2018-03-28T21:42:30.132Z,21.45
2018-03-28T21:44:57.812Z,20.50
2018-03-28T21:47:25.576Z,19.70
2018-03-28T21:49:53.212Z,18.05
2018-03-28T21:52:20.980Z,15.68
2018-03-28T21:54:48.639Z,17.02
2018-03-28T21:57:16.621Z,9.63
2018-03-28T21:59:45.483Z,11.55
2018-03-28T22:02:13.158Z,10.65
2018-03-28T22:04:40.836Z,8.25
2018-03-28T22:07:08.508Z,6.85
2018-03-28T22:09:36.346Z,7.00
2018-03-28T22:12:04.107Z,7.07
2018-03-28T22:14:31.784Z,5.55
2018-03-28T22:16:59.735Z,7.15
2018-03-28T22:19:27.498Z,6.20
2018-03-28T22:21:55.261Z,6.30
2018-03-28T22:24:23.029Z,6.28
2018-03-28T22:26:50.787Z,6.55
2018-03-28T22:29:18.461Z,5.18
